Time;durP1;ratioP1;P1;durP2;ratioP2;P2;SDS_P1;SDS_P2;PMS_P1;PMS_P2;Temp;Humidity;BMP_temperature;BMP_pressure;BME280_temperature;BME280_humidity;BME280_pressure;Samples;Min_cycle;Max_cycle;Signal;HPM_P1;HPM_P2
2022/03/17 00:01:20;;;;;;;39.67;26.20;;;4.50;69.20;;;;;;4987432;28;20938;-50
2022/03/17 00:03:47;;;;;;;33.80;26.33;;;4.50;72.70;;;;;;4993670;28;20468;-50
2022/03/17 00:06:13;;;;;;;39.73;28.30;;;4.50;72.20;;;;;;4991349;28;20469;-50
2022/03/17 00:08:42;;;;;;;34.77;27.23;;;4.40;76.80;;;;;;4993327;28;20503;-50
2022/03/17 00:11:08;;;;;;;36.97;28.17;;;4.50;72.60;;;;;;4993652;28;20476;-50
2022/03/17 00:13:35;;;;;;;36.33;28.77;;;4.50;58.90;;;;;;5009271;28;20536;-50
2022/03/17 00:16:02;;;;;;;34.93;27.47;;;4.60;60.50;;;;;;5007661;28;20480;-50
2022/03/17 00:18:28;;;;;;;38.23;29.77;;;4.60;65.20;;;;;;5008148;28;20463;-51
2022/03/17 00:20:55;;;;;;;41.10;29.63;;;4.60;68.50;;;;;;4996816;28;20445;-50
2022/03/17 00:23:22;;;;;;;38.43;29.97;;;4.60;69.80;;;;;;5005350;28;20520;-51
2022/03/17 00:25:50;;;;;;;36.10;29.33;;;4.60;74.00;;;;;;4990902;28;20480;-50
2022/03/17 00:28:17;;;;;;;39.10;28.40;;;4.50;73.80;;;;;;4986700;28;20487;-50
2022/03/17 00:30:43;;;;;;;38.43;28.50;;;4.50;78.20;;;;;;4985295;28;20979;-50
2022/03/17 00:33:10;;;;;;;39.37;29.70;;;4.40;81.30;;;;;;4985263;28;20461;-50
2022/03/17 00:35:38;;;;;;;35.43;27.03;;;4.30;78.30;;;;;;4986635;28;20543;-51
2022/03/17 00:38:08;;;;;;;38.50;30.00;;;4.40;72.50;;;;;;4987046;28;20460;-50
2022/03/17 00:40:35;;;;;;;37.17;29.87;;;4.30;70.80;;;;;;4989894;28;20472;-50
2022/03/17 00:43:03;;;;;;;37.63;29.90;;;4.40;61.60;;;;;;4987060;28;20942;-50
2022/03/17 00:45:30;;;;;;;34.17;27.57;;;4.40;63.90;;;;;;4984450;28;21038;-50
2022/03/17 00:47:57;;;;;;;37.27;29.70;;;4.30;68.30;;;;;;4983667;28;20567;-50
2022/03/17 00:50:25;;;;;;;39.90;30.43;;;4.40;65.40;;;;;;4988068;28;21058;-51
2022/03/17 00:52:53;;;;;;;39.17;30.40;;;4.40;68.00;;;;;;4988517;28;20472;-50
2022/03/17 00:55:20;;;;;;;37.53;31.03;;;4.40;65.00;;;;;;4985259;28;20468;-50
2022/03/17 00:57:47;;;;;;;39.70;30.67;;;4.30;66.50;;;;;;4982679;28;20464;-50
2022/03/17 01:00:16;;;;;;;39.53;30.27;;;4.30;70.60;;;;;;4984590;28;20504;-50
2022/03/17 01:02:44;;;;;;;38.03;28.53;;;4.30;70.30;;;;;;4984833;28;20561;-50
2022/03/17 01:05:11;;;;;;;42.13;31.40;;;4.20;71.10;;;;;;4984446;28;20493;-49
2022/03/17 01:07:38;;;;;;;38.93;29.00;;;4.20;71.70;;;;;;4982483;28;20460;-49
2022/03/17 01:10:05;;;;;;;41.60;31.07;;;4.10;73.00;;;;;;4983546;28;20487;-49
2022/03/17 01:12:32;;;;;;;38.90;30.87;;;4.10;70.70;;;;;;4982680;28;20522;-49
2022/03/17 01:14:59;;;;;;;39.00;30.33;;;4.10;64.70;;;;;;4980530;28;20496;-49
2022/03/17 01:17:27;;;;;;;45.33;31.73;;;4.00;67.20;;;;;;4989000;28;20574;-50
2022/03/17 01:19:54;;;;;;;42.93;31.23;;;4.10;64.60;;;;;;4986112;28;20543;-49
2022/03/17 01:22:21;;;;;;;37.30;29.83;;;4.00;60.50;;;;;;4983912;28;20946;-49
2022/03/17 01:24:49;;;;;;;40.47;30.83;;;4.00;60.80;;;;;;4985172;28;20456;-49
2022/03/17 01:27:19;;;;;;;40.53;31.17;;;4.00;60.30;;;;;;4981263;28;20488;-50
2022/03/17 01:29:46;;;;;;;39.20;31.03;;;3.90;61.80;;;;;;4983926;28;20484;-48
2022/03/17 01:32:13;;;;;;;40.33;30.70;;;4.00;57.90;;;;;;4984566;28;20496;-49
2022/03/17 01:34:41;;;;;;;39.30;31.70;;;4.00;57.30;;;;;;4982383;28;20511;-49
2022/03/17 01:37:07;;;;;;;40.77;30.90;;;4.00;51.20;;;;;;4983165;28;20488;-49
2022/03/17 01:39:34;;;;;;;50.67;30.67;;;3.90;53.50;;;;;;4983947;28;20489;-49
2022/03/17 01:42:04;;;;;;;42.40;32.50;;;3.90;56.90;;;;;;4984521;28;20969;-50
2022/03/17 01:44:31;;;;;;;37.63;31.17;;;3.90;57.30;;;;;;4984047;28;20547;-50
2022/03/17 01:49:43;;;;;;;42.20;31.70;;;3.90;53.40;;;;;;4982579;28;20483;-49
2022/03/17 01:52:10;;;;;;;40.70;30.93;;;3.90;53.50;;;;;;4984642;28;20460;-49
2022/03/17 01:54:37;;;;;;;40.83;32.57;;;3.80;57.70;;;;;;4985937;28;20449;-49
2022/03/17 01:57:08;;;;;;;37.63;29.80;;;3.80;57.80;;;;;;4985525;28;20520;-50
2022/03/17 01:59:36;;;;;;;39.47;30.70;;;3.80;60.10;;;;;;4994350;28;20449;-50
2022/03/17 02:02:05;;;;;;;43.33;32.10;;;3.80;58.10;;;;;;4988282;28;20465;-50
2022/03/17 02:04:31;;;;;;;45.37;31.40;;;3.70;56.30;;;;;;4989621;28;20523;-50
2022/03/17 02:06:59;;;;;;;43.67;34.43;;;3.70;53.40;;;;;;4985895;28;20570;-50
2022/03/17 02:09:26;;;;;;;43.17;32.00;;;3.70;51.40;;;;;;4983246;28;20530;-50
2022/03/17 02:14:53;;;;;;;48.70;34.50;;;3.80;47.40;;;;;;4933663;29;20447;-50
2022/03/17 02:17:21;;;;;;;46.73;33.77;;;3.70;53.80;;;;;;4938040;28;20524;-50
2022/03/17 02:19:48;;;;;;;50.13;35.57;;;3.70;45.20;;;;;;4969351;28;20488;-51
2022/03/17 02:22:18;;;;;;;47.97;36.07;;;3.80;46.60;;;;;;4988689;28;20461;-50
2022/03/17 02:27:34;;;;;;;44.70;31.93;;;3.70;53.20;;;;;;4985160;28;20559;-50
2022/03/17 02:30:03;;;;;;;44.77;34.90;;;3.70;44.70;;;;;;4992418;28;20492;-50
2022/03/17 02:32:30;;;;;;;46.67;35.50;;;3.80;43.80;;;;;;4984242;28;20464;-50
2022/03/17 02:34:56;;;;;;;48.90;34.97;;;3.80;49.80;;;;;;4988264;28;20464;-50
2022/03/17 02:37:24;;;;;;;48.97;35.80;;;3.90;40.00;;;;;;4993171;28;20892;-50
2022/03/17 02:39:51;;;;;;;50.07;36.10;;;3.90;55.10;;;;;;4993185;28;20813;-50
2022/03/17 02:42:18;;;;;;;44.57;35.23;;;3.90;53.20;;;;;;4986317;28;20453;-50
2022/03/17 02:44:45;;;;;;;47.87;36.07;;;3.90;55.20;;;;;;4993652;28;20468;-50
2022/03/17 02:47:11;;;;;;;47.50;36.20;;;3.80;63.00;;;;;;4991337;28;20905;-50
2022/03/17 02:49:38;;;;;;;46.73;34.27;;;3.80;63.30;;;;;;4993360;28;20484;-50
2022/03/17 02:52:06;;;;;;;49.03;37.90;;;3.80;69.90;;;;;;4993648;28;20448;-49
2022/03/17 02:54:32;;;;;;;46.37;36.00;;;3.80;64.10;;;;;;4994548;28;20908;-51
2022/03/17 02:57:00;;;;;;;46.10;36.20;;;3.80;66.50;;;;;;4993623;28;20495;-49
2022/03/17 02:59:27;;;;;;;46.80;37.23;;;3.80;71.20;;;;;;4986979;28;20518;-50
2022/03/17 03:01:53;;;;;;;45.80;36.50;;;3.70;72.70;;;;;;4993386;28;20930;-50
2022/03/17 03:04:20;;;;;;;47.93;36.93;;;3.70;77.70;;;;;;4993567;28;20889;-50
2022/03/17 03:06:47;;;;;;;46.53;36.87;;;3.70;80.20;;;;;;4992020;28;20551;-51
2022/03/17 03:09:13;;;;;;;45.10;35.70;;;3.60;84.40;;;;;;4992736;28;20535;-50
2022/03/17 03:11:40;;;;;;;48.47;36.50;;;3.60;82.80;;;;;;4993232;28;20826;-49
2022/03/17 03:14:09;;;;;;;46.80;37.13;;;3.60;83.40;;;;;;4992004;28;20946;-51
2022/03/17 03:16:36;;;;;;;48.43;36.33;;;3.60;90.60;;;;;;4994187;28;20491;-50
2022/03/17 03:19:03;;;;;;;49.27;39.33;;;3.40;91.20;;;;;;4994213;28;20444;-50
2022/03/17 03:21:30;;;;;;;48.30;36.83;;;3.50;71.20;;;;;;4991036;28;20456;-50
2022/03/17 03:23:56;;;;;;;43.80;34.40;;;3.50;86.50;;;;;;4994152;28;20446;-49
2022/03/17 03:26:23;;;;;;;46.93;36.50;;;3.40;88.90;;;;;;4998766;28;20530;-51
2022/03/17 03:28:49;;;;;;;44.83;34.67;;;3.40;84.40;;;;;;4991575;28;20489;-51
2022/03/17 03:31:17;;;;;;;46.00;34.90;;;3.40;86.10;;;;;;4994603;28;20456;-50
2022/03/17 03:33:44;;;;;;;50.03;35.90;;;3.40;84.70;;;;;;4985324;28;20449;-49
2022/03/17 03:38:54;;;;;;;41.60;34.33;;;3.40;78.60;;;;;;5015687;28;21293;-50
2022/03/17 03:41:21;;;;;;;46.50;34.70;;;3.30;86.10;;;;;;5005230;28;20476;-50
2022/03/17 03:43:48;;;;;;;45.90;36.77;;;3.30;89.50;;;;;;5021381;28;20507;-51
2022/03/17 03:46:14;;;;;;;49.50;37.80;;;3.30;84.10;;;;;;5014823;28;20473;-50
2022/03/17 03:48:42;;;;;;;47.63;36.90;;;3.30;82.30;;;;;;4994048;28;20457;-50
2022/03/17 03:51:09;;;;;;;43.23;35.53;;;3.40;78.90;;;;;;4986687;28;20446;-50
2022/03/17 03:56:16;;;;;;;49.03;37.53;;;3.30;83.30;;;;;;4990830;28;20494;-50
2022/03/17 03:58:43;;;;;;;48.43;37.57;;;3.30;77.90;;;;;;4982934;28;20436;-50
2022/03/17 04:01:09;;;;;;;50.13;37.70;;;3.20;86.20;;;;;;4988723;28;20499;-50
2022/03/17 04:03:36;;;;;;;46.10;35.43;;;3.30;85.20;;;;;;4988635;28;20449;-50
2022/03/17 04:06:04;;;;;;;45.70;34.27;;;3.20;79.60;;;;;;4990957;28;21032;-49
2022/03/17 04:08:30;;;;;;;49.33;38.37;;;3.20;80.40;;;;;;4992802;28;20826;-51
2022/03/17 04:10:57;;;;;;;47.20;37.00;;;3.20;79.40;;;;;;4991133;28;20579;-50
2022/03/17 04:13:23;;;;;;;48.00;36.70;;;3.20;75.50;;;;;;4988192;28;20460;-50
2022/03/17 04:15:50;;;;;;;52.30;38.97;;;3.20;76.50;;;;;;4992432;28;20476;-50
2022/03/17 04:18:16;;;;;;;48.67;37.03;;;3.20;79.10;;;;;;4990719;28;20519;-50
2022/03/17 04:20:44;;;;;;;53.83;39.07;;;3.20;75.80;;;;;;4990710;28;20458;-50
2022/03/17 04:23:12;;;;;;;52.03;41.07;;;3.20;75.00;;;;;;4986836;28;20465;-50
2022/03/17 04:25:38;;;;;;;52.73;39.37;;;3.30;76.20;;;;;;4987596;28;20484;-50
2022/03/17 04:28:05;;;;;;;52.33;39.23;;;3.40;80.40;;;;;;4986077;28;20468;-49
2022/03/17 04:30:33;;;;;;;56.30;41.30;;;3.40;87.70;;;;;;4994071;28;20499;-50
2022/03/17 04:33:00;;;;;;;61.10;42.40;;;3.40;89.90;;;;;;4990915;28;20464;-50
2022/03/17 04:35:26;;;;;;;55.87;39.10;;;3.60;93.50;;;;;;4992922;28;20461;-50
2022/03/17 04:37:53;;;;;;;55.27;41.47;;;3.60;99.90;;;;;;4988199;28;20516;-50
2022/03/17 04:40:21;;;;;;;54.80;40.90;;;3.70;96.80;;;;;;4990245;28;21024;-50
2022/03/17 04:42:47;;;;;;;51.03;40.23;;;3.70;99.90;;;;;;4990026;28;20515;-50
2022/03/17 04:45:14;;;;;;;56.10;42.70;;;3.80;99.90;;;;;;4990475;28;20452;-50
2022/03/17 04:47:40;;;;;;;52.60;41.07;;;3.80;99.90;;;;;;4992424;28;20465;-49
2022/03/17 04:50:08;;;;;;;57.83;43.10;;;4.00;99.90;;;;;;4990317;28;20868;-50
2022/03/17 04:55:21;;;;;;;53.43;41.30;;;4.10;99.90;;;;;;4989477;28;20499;-50
2022/03/17 04:57:48;;;;;;;56.97;43.60;;;4.20;99.90;;;;;;4991981;28;20627;-50
2022/03/17 05:00:15;;;;;;;57.70;43.97;;;4.20;99.90;;;;;;4989895;28;20452;-50
2022/03/17 05:02:42;;;;;;;56.97;43.10;;;4.20;99.90;;;;;;4983553;28;20456;-49
2022/03/17 05:05:08;;;;;;;57.50;43.87;;;4.30;99.90;;;;;;4989638;28;20978;-50
2022/03/17 05:07:35;;;;;;;59.27;43.17;;;4.30;99.90;;;;;;4989931;28;20907;-51
2022/03/17 05:10:02;;;;;;;58.77;45.70;;;4.40;99.90;;;;;;4989463;28;20538;-49
2022/03/17 05:12:30;;;;;;;58.30;43.77;;;4.50;99.90;;;;;;4989513;28;20471;-51
2022/03/17 05:14:57;;;;;;;52.93;43.10;;;4.40;99.90;;;;;;4991534;28;20457;-50
2022/03/17 05:17:23;;;;;;;61.33;43.80;;;4.50;99.90;;;;;;4991567;28;20534;-51
2022/03/17 05:19:50;;;;;;;53.60;42.20;;;4.50;99.90;;;;;;4990300;28;20484;-50
2022/03/17 05:22:16;;;;;;;59.50;44.30;;;4.50;99.90;;;;;;4988505;28;20519;-50
2022/03/17 05:24:43;;;;;;;59.70;44.70;;;4.50;99.90;;;;;;4985354;28;21021;-50
2022/03/17 05:27:09;;;;;;;62.77;45.57;;;4.50;99.90;;;;;;4987509;28;20899;-50
2022/03/17 05:29:37;;;;;;;62.43;44.63;;;4.50;99.90;;;;;;4990664;28;20488;-50
2022/03/17 05:32:05;;;;;;;59.00;44.20;;;4.50;99.90;;;;;;4986426;28;20465;-52
2022/03/17 05:34:32;;;;;;;55.17;43.27;;;4.50;99.90;;;;;;4989360;28;20468;-51
2022/03/17 05:36:58;;;;;;;58.10;44.70;;;4.40;99.90;;;;;;4987201;28;20490;-51
2022/03/17 05:39:25;;;;;;;54.43;43.57;;;4.40;99.90;;;;;;4988120;28;20472;-52
2022/03/17 05:41:51;;;;;;;58.93;45.80;;;4.40;99.90;;;;;;4987535;28;20514;-49
2022/03/17 05:44:18;;;;;;;59.80;45.80;;;4.40;99.90;;;;;;4987202;28;20507;-50
2022/03/17 05:46:46;;;;;;;59.13;44.00;;;4.40;99.90;;;;;;4985050;28;20468;-49
2022/03/17 05:49:13;;;;;;;67.33;48.27;;;4.40;99.90;;;;;;4984477;28;20460;-49
2022/03/17 05:51:40;;;;;;;63.07;45.10;;;4.40;99.90;;;;;;4993904;28;20461;-52
2022/03/17 05:54:06;;;;;;;62.87;48.10;;;4.40;99.90;;;;;;4991167;28;20499;-53
2022/03/17 05:56:34;;;;;;;57.17;45.17;;;4.40;99.90;;;;;;4995947;28;20492;-53
2022/03/17 05:59:01;;;;;;;65.87;47.60;;;4.40;99.90;;;;;;4993853;28;20453;-52
2022/03/17 06:01:28;;;;;;;64.83;47.50;;;4.50;99.90;;;;;;4994103;28;20493;-53
2022/03/17 06:03:57;;;;;;;66.33;47.73;;;4.50;99.90;;;;;;4994626;28;20519;-51
2022/03/17 06:06:23;;;;;;;62.53;46.63;;;4.50;99.90;;;;;;4994968;28;20507;-52
2022/03/17 06:08:50;;;;;;;63.43;48.80;;;4.50;99.90;;;;;;4996603;28;20530;-51
2022/03/17 06:11:16;;;;;;;65.67;48.37;;;4.60;99.90;;;;;;4992053;28;21033;-52
2022/03/17 06:13:43;;;;;;;63.37;46.30;;;4.60;99.90;;;;;;4994880;28;20804;-52
2022/03/17 06:16:10;;;;;;;64.60;46.57;;;4.60;99.90;;;;;;4996505;28;20489;-52
2022/03/17 06:18:37;;;;;;;92.13;49.90;;;4.60;20.80;;;;;;4988185;28;20505;-52
2022/03/17 06:21:05;;;;;;;68.00;48.37;;;4.60;24.20;;;;;;4994349;28;20456;-52
2022/03/17 06:23:31;;;;;;;76.90;50.50;;;4.60;80.00;;;;;;4991335;28;20954;-52
2022/03/17 06:25:59;;;;;;;64.47;48.43;;;4.60;22.30;;;;;;4995034;28;20491;-52
2022/03/17 06:28:26;;;;;;;70.13;49.47;;;4.60;81.80;;;;;;4994582;28;20472;-52
2022/03/17 06:30:54;;;;;;;70.67;49.50;;;4.70;26.60;;;;;;4993418;28;21064;-50
2022/03/17 06:33:20;;;;;;;68.93;50.13;;;4.70;30.00;;;;;;4998918;28;20468;-51
2022/03/17 06:35:47;;;;;;;68.23;49.77;;;4.70;27.90;;;;;;4997347;28;20492;-51
2022/03/17 06:38:15;;;;;;;64.17;49.00;;;4.80;28.10;;;;;;4997498;28;21016;-51
2022/03/17 06:40:42;;;;;;;70.27;50.27;;;4.70;34.60;;;;;;5000044;28;20530;-51
2022/03/17 06:43:09;;;;;;;71.30;49.43;;;4.80;30.20;;;;;;4997178;28;20476;-51
2022/03/17 06:45:35;;;;;;;68.50;50.40;;;4.80;33.50;;;;;;4998917;28;20480;-51
2022/03/17 06:48:02;;;;;;;72.77;51.53;;;4.90;43.80;;;;;;4995337;28;22200;-50
2022/03/17 06:50:30;;;;;;;63.07;49.80;;;4.90;36.80;;;;;;4994927;28;20523;-51
2022/03/17 06:52:56;;;;;;;67.80;49.00;;;4.90;33.90;;;;;;5002066;28;20527;-51
2022/03/17 06:55:24;;;;;;;73.03;50.37;;;5.00;48.10;;;;;;4997818;28;20460;-50
2022/03/17 06:57:51;;;;;;;65.70;51.07;;;5.00;45.40;;;;;;4998488;28;20977;-50
2022/03/17 07:00:19;;;;;;;71.63;49.43;;;5.00;48.30;;;;;;4988798;28;20941;-50
2022/03/17 07:02:46;;;;;;;72.43;50.47;;;5.10;50.40;;;;;;4994105;28;20448;-51
2022/03/17 07:05:15;;;;;;;64.40;50.13;;;5.10;51.00;;;;;;4996933;28;20491;-51
2022/03/17 07:07:43;;;;;;;68.20;49.57;;;5.20;51.00;;;;;;4993705;28;20464;-50
2022/03/17 07:10:11;;;;;;;69.40;50.97;;;5.20;63.40;;;;;;4983288;28;20564;-50
2022/03/17 07:12:41;;;;;;;68.10;50.83;;;5.30;60.10;;;;;;4991112;28;20453;-51
2022/03/17 07:15:08;;;;;;;72.70;51.30;;;5.30;57.80;;;;;;4991579;28;20457;-51
2022/03/17 07:17:39;;;;;;;77.10;53.43;;;5.20;70.90;;;;;;4991207;28;20547;-51
2022/03/17 07:20:07;;;;;;;67.27;49.23;;;5.30;67.40;;;;;;4991796;28;20469;-51
2022/03/17 07:22:33;;;;;;;72.93;53.33;;;5.50;67.40;;;;;;4995747;28;20460;-51
2022/03/17 07:25:00;;;;;;;78.60;54.50;;;5.50;78.20;;;;;;4981604;28;20504;-51
2022/03/17 07:27:27;;;;;;;68.47;51.30;;;5.50;82.10;;;;;;4986917;28;20481;-50
2022/03/17 07:29:55;;;;;;;73.07;49.77;;;5.60;74.70;;;;;;4993779;28;20455;-51
2022/03/17 07:32:22;;;;;;;74.17;53.70;;;5.70;79.00;;;;;;4995039;28;21309;-52
2022/03/17 07:34:50;;;;;;;68.77;52.80;;;5.70;80.70;;;;;;4991845;28;20548;-51
2022/03/17 07:37:17;;;;;;;74.13;52.87;;;5.70;82.50;;;;;;4989493;28;20495;-50
2022/03/17 07:39:43;;;;;;;75.10;55.50;;;5.80;90.00;;;;;;4990047;28;20461;-51
2022/03/17 07:42:10;;;;;;;71.00;53.77;;;5.80;91.70;;;;;;4991882;28;20946;-51
2022/03/17 07:44:37;;;;;;;80.67;55.67;;;5.90;93.40;;;;;;4989752;28;20500;-51
2022/03/17 07:47:08;;;;;;;80.93;53.67;;;5.80;96.30;;;;;;4990389;28;20489;-51
2022/03/17 07:49:34;;;;;;;80.03;55.93;;;5.90;98.70;;;;;;4986497;28;20514;-51
2022/03/17 07:52:01;;;;;;;74.63;53.20;;;5.90;99.90;;;;;;4992283;28;20488;-51
2022/03/17 07:54:28;;;;;;;78.37;57.13;;;6.00;99.90;;;;;;4989976;28;20469;-52
2022/03/17 07:56:55;;;;;;;75.70;53.43;;;6.10;99.90;;;;;;4988532;28;20494;-51
2022/03/17 07:59:23;;;;;;;77.97;55.90;;;6.10;99.90;;;;;;4986537;28;20468;-52
2022/03/17 08:01:50;;;;;;;78.93;56.20;;;6.10;99.90;;;;;;4987508;28;20456;-50
2022/03/17 08:04:18;;;;;;;75.03;57.10;;;6.20;99.90;;;;;;4985870;28;20472;-50
2022/03/17 08:06:45;;;;;;;79.27;56.10;;;6.20;99.90;;;;;;4990792;28;20918;-51
2022/03/17 08:09:12;;;;;;;81.33;55.97;;;6.20;99.90;;;;;;4983982;28;20457;-51
2022/03/17 08:11:38;;;;;;;77.33;55.10;;;6.30;99.90;;;;;;4988988;28;20476;-51
2022/03/17 08:14:05;;;;;;;78.73;56.70;;;6.40;99.90;;;;;;4982597;28;20501;-50
2022/03/17 08:16:31;;;;;;;83.13;56.80;;;6.40;99.90;;;;;;4986197;28;20550;-51
2022/03/17 08:18:58;;;;;;;75.57;55.90;;;6.50;99.90;;;;;;4985531;28;20523;-51
2022/03/17 08:21:26;;;;;;;79.43;57.90;;;6.50;99.90;;;;;;4989495;28;21012;-51
2022/03/17 08:23:52;;;;;;;71.57;55.13;;;6.60;99.90;;;;;;4986624;28;20533;-51
2022/03/17 08:26:19;;;;;;;78.57;56.43;;;6.60;99.90;;;;;;4984590;28;20525;-51
2022/03/17 08:28:45;;;;;;;81.40;60.70;;;6.60;99.90;;;;;;4985940;28;20468;-51
2022/03/17 08:31:12;;;;;;;83.60;56.93;;;6.70;99.90;;;;;;4987270;28;21350;-51
2022/03/17 08:33:39;;;;;;;81.50;59.13;;;6.70;99.90;;;;;;4979895;28;20523;-51
2022/03/17 08:36:06;;;;;;;81.40;54.53;;;6.70;99.90;;;;;;4979272;28;20485;-51
2022/03/17 08:38:34;;;;;;;74.40;56.60;;;6.60;99.90;;;;;;4986130;28;20557;-50
2022/03/17 08:41:01;;;;;;;89.60;59.90;;;6.70;99.90;;;;;;4984425;28;20526;-51
2022/03/17 08:43:27;;;;;;;81.30;59.30;;;6.80;99.90;;;;;;4982673;28;20460;-51
2022/03/17 08:51:25;;;;;;;78.83;56.63;;;7.00;99.90;;;;;;4987626;28;21021;-51
2022/03/17 08:53:53;;;;;;;87.63;57.40;;;7.10;99.90;;;;;;4987535;28;20465;-51
2022/03/17 08:56:20;;;;;;;81.57;58.23;;;7.00;99.90;;;;;;4982705;28;20524;-51
2022/03/17 08:58:46;;;;;;;77.13;56.20;;;7.10;99.90;;;;;;4983824;28;20497;-51
2022/03/17 09:01:13;;;;;;;79.23;57.60;;;7.10;99.90;;;;;;4983842;28;21019;-51
2022/03/17 09:03:40;;;;;;;82.80;58.20;;;7.20;99.90;;;;;;4985844;28;20488;-52
2022/03/17 09:06:06;;;;;;;81.77;56.27;;;7.20;99.90;;;;;;4982162;28;20484;-51
2022/03/17 09:08:33;;;;;;;82.70;58.13;;;7.30;99.90;;;;;;4991488;28;20441;-51
2022/03/17 09:11:01;;;;;;;78.40;59.40;;;7.40;99.90;;;;;;4984180;28;21017;-51
2022/03/17 09:13:28;;;;;;;81.33;59.33;;;7.30;99.90;;;;;;4981075;28;20465;-51
2022/03/17 09:15:55;;;;;;;81.73;57.30;;;7.40;99.90;;;;;;4990969;28;21296;-51
2022/03/17 09:18:23;;;;;;;73.83;56.10;;;7.40;99.90;;;;;;4992806;28;20457;-51
2022/03/17 09:20:50;;;;;;;77.20;57.57;;;7.40;99.90;;;;;;4985335;28;20938;-51
2022/03/17 09:23:17;;;;;;;81.33;55.50;;;7.40;99.90;;;;;;4987153;28;20821;-51
2022/03/17 09:25:45;;;;;;;79.20;57.90;;;7.50;99.90;;;;;;4989168;28;20480;-51
2022/03/17 09:28:13;;;;;;;79.60;57.97;;;7.50;99.90;;;;;;4997383;28;20460;-51
2022/03/17 09:30:40;;;;;;;75.83;56.80;;;7.70;99.90;;;;;;4997986;28;20479;-51
2022/03/17 09:33:09;;;;;;;79.77;58.77;;;7.70;99.90;;;;;;4997598;28;20457;-50
2022/03/17 09:35:36;;;;;;;81.77;59.77;;;7.80;99.90;;;;;;4992931;28;20526;-51
2022/03/17 09:38:03;;;;;;;72.57;55.30;;;7.80;99.90;;;;;;4991580;28;20461;-51
2022/03/17 09:40:30;;;;;;;80.23;57.70;;;7.90;99.90;;;;;;4991791;28;20497;-51
2022/03/17 09:45:42;;;;;;;81.17;58.80;;;8.10;99.90;;;;;;4979670;28;20491;-51
2022/03/17 09:48:11;;;;;;;85.67;59.70;;;8.10;99.90;;;;;;4986083;28;20514;-51
2022/03/17 09:50:38;;;;;;;83.40;59.70;;;8.20;99.90;;;;;;4979444;28;20472;-51
2022/03/17 09:53:06;;;;;;;91.40;55.00;;;8.30;99.90;;;;;;4990149;28;21009;-52
2022/03/17 09:55:33;;;;;;;78.27;55.90;;;8.30;99.90;;;;;;4990959;28;20460;-51
2022/03/17 09:58:00;;;;;;;73.93;53.60;;;8.30;99.90;;;;;;4984455;28;20492;-51
2022/03/17 10:00:47;;;;;;;76.33;55.10;;;8.40;99.90;;;;;;4997732;28;20522;-51
2022/03/17 10:03:15;;;;;;;75.50;54.93;;;8.50;99.90;;;;;;4985836;28;20461;-51
2022/03/17 10:05:44;;;;;;;68.93;53.83;;;8.60;77.50;;;;;;4989477;28;20468;-51
2022/03/17 10:08:10;;;;;;;70.90;53.60;;;8.60;28.30;;;;;;4976507;28;20465;-51
2022/03/17 10:10:38;;;;;;;80.63;54.20;;;8.70;29.80;;;;;;4990050;28;20515;-50
2022/03/17 10:13:07;;;;;;;74.50;55.40;;;8.80;39.10;;;;;;4994144;28;20437;-51
2022/03/17 10:15:34;;;;;;;63.40;50.90;;;8.90;38.20;;;;;;4990022;28;21046;-52
2022/03/17 10:18:01;;;;;;;84.60;54.70;;;9.00;43.70;;;;;;4980367;28;20957;-55
2022/03/17 10:20:31;;;;;;;70.63;54.63;;;9.00;53.90;;;;;;4984308;28;20474;-51
2022/03/17 10:23:01;;;;;;;69.37;52.17;;;9.10;53.40;;;;;;4983141;28;20578;-51
2022/03/17 10:25:30;;;;;;;74.37;52.87;;;9.10;59.60;;;;;;4993090;28;20467;-51
2022/03/17 10:27:58;;;;;;;69.43;52.50;;;9.20;57.90;;;;;;4974728;28;20527;-51
2022/03/17 10:30:27;;;;;;;65.43;51.23;;;9.20;61.50;;;;;;4982437;28;20468;-51
2022/03/17 10:32:56;;;;;;;68.63;52.90;;;9.30;70.10;;;;;;4983086;28;20678;-51
2022/03/17 10:35:27;;;;;;;69.00;52.17;;;9.30;71.60;;;;;;4992035;28;20544;-51
2022/03/17 10:37:55;;;;;;;72.43;53.60;;;9.40;72.20;;;;;;4980316;28;20483;-51
2022/03/17 10:40:30;;;;;;;72.93;52.37;;;9.50;75.70;;;;;;4984079;28;20461;-51
2022/03/17 10:43:15;;;;;;;74.83;52.50;;;9.60;75.60;;;;;;4989219;28;20502;-51
2022/03/17 10:45:42;;;;;;;71.37;53.10;;;9.60;78.80;;;;;;4990804;28;20490;-52
2022/03/17 10:48:09;;;;;;;76.03;54.27;;;9.70;85.70;;;;;;4995643;28;20520;-52
2022/03/17 10:50:39;;;;;;;75.43;54.20;;;9.70;87.30;;;;;;4987072;28;20526;-52
2022/03/17 10:53:07;;;;;;;74.13;53.23;;;9.80;85.70;;;;;;4995839;28;20858;-52
2022/03/17 10:55:35;;;;;;;65.33;51.83;;;10.00;87.50;;;;;;4985378;28;20468;-51
2022/03/17 10:58:13;;;;;;;69.63;51.30;;;10.10;88.70;;;;;;4988976;28;20495;-52
2022/03/17 11:00:46;;;;;;;71.73;52.33;;;10.10;94.30;;;;;;4993029;28;20491;-50
2022/03/17 11:03:14;;;;;;;69.27;51.13;;;10.20;92.40;;;;;;4996038;28;20441;-51
2022/03/17 11:05:41;;;;;;;75.43;54.80;;;10.30;92.40;;;;;;4998671;28;20488;-51
2022/03/17 11:08:10;;;;;;;65.27;51.10;;;10.30;91.80;;;;;;4999305;28;20520;-52
2022/03/17 11:10:37;;;;;;;72.07;53.13;;;10.30;98.90;;;;;;4997962;28;20492;-51
2022/03/17 11:13:09;;;;;;;72.83;51.83;;;10.30;99.90;;;;;;5009194;28;20484;-52
2022/03/17 11:15:38;;;;;;;71.90;53.43;;;10.40;99.60;;;;;;4998900;28;20468;-51
2022/03/17 11:18:07;;;;;;;75.00;53.63;;;10.30;98.90;;;;;;4989415;28;20963;-51
2022/03/17 11:20:35;;;;;;;73.43;54.73;;;10.40;99.70;;;;;;4992262;28;20465;-52
2022/03/17 11:23:06;;;;;;;72.80;52.30;;;10.30;99.90;;;;;;4987183;28;20440;-51
2022/03/17 11:25:34;;;;;;;78.03;52.10;;;10.40;99.90;;;;;;4992373;28;20468;-51
2022/03/17 11:28:03;;;;;;;78.00;52.90;;;10.30;99.90;;;;;;4986598;28;20490;-51
2022/03/17 11:30:31;;;;;;;67.50;47.03;;;10.40;99.90;;;;;;4994071;28;20464;-50
2022/03/17 11:32:59;;;;;;;71.40;51.70;;;10.40;99.90;;;;;;4987654;28;20481;-51
2022/03/17 11:35:29;;;;;;;64.83;50.10;;;10.40;99.90;;;;;;4994320;28;20464;-52
2022/03/17 11:38:16;;;;;;;62.03;48.63;;;10.40;99.90;;;;;;4991220;28;20518;-51
2022/03/17 11:41:13;;;;;;;68.27;48.83;;;10.60;99.90;;;;;;4993630;28;20464;-51
2022/03/17 11:44:02;;;;;;;69.27;49.63;;;10.60;99.90;;;;;;4986169;28;20556;-51
2022/03/17 11:46:41;;;;;;;67.53;48.30;;;10.60;99.90;;;;;;4990464;28;20484;-51
2022/03/17 11:49:23;;;;;;;71.00;49.73;;;10.70;99.90;;;;;;4988465;28;20456;-50
2022/03/17 11:51:55;;;;;;;61.53;47.70;;;10.80;99.90;;;;;;4985884;28;20547;-51
2022/03/17 11:54:21;;;;;;;65.43;46.73;;;10.90;99.90;;;;;;4986241;28;20553;-51
2022/03/17 11:56:54;;;;;;;59.97;45.83;;;11.00;99.90;;;;;;4985442;28;20520;-51
2022/03/17 11:59:23;;;;;;;58.57;44.57;;;11.10;99.90;;;;;;4982723;28;20465;-51
2022/03/17 12:01:50;;;;;;;65.57;45.77;;;11.30;99.90;;;;;;4985429;28;20492;-52
2022/03/17 12:04:24;;;;;;;68.93;45.37;;;11.30;99.90;;;;;;4992706;28;20527;-51
2022/03/17 12:06:55;;;;;;;64.73;46.40;;;11.30;99.90;;;;;;4986229;28;20480;-51
2022/03/17 12:09:32;;;;;;;53.27;42.60;;;11.30;99.90;;;;;;4987156;28;20491;-51
2022/03/17 12:12:00;;;;;;;55.37;40.60;;;11.30;99.90;;;;;;4988734;28;20472;-51
2022/03/17 12:14:28;;;;;;;56.83;43.77;;;11.40;99.90;;;;;;4994273;28;20457;-51
2022/03/17 12:16:56;;;;;;;61.43;43.23;;;11.50;99.90;;;;;;4983028;28;20487;-51
2022/03/17 12:19:31;;;;;;;56.83;42.10;;;11.50;99.90;;;;;;4989760;28;20813;-52
2022/03/17 12:22:20;;;;;;;57.20;43.07;;;11.50;99.90;;;;;;4985695;28;20514;-51
2022/03/17 12:24:49;;;;;;;54.37;39.87;;;11.40;99.90;;;;;;4994394;28;20444;-50
2022/03/17 12:27:20;;;;;;;56.37;37.97;;;11.40;99.90;;;;;;4983983;28;20535;-51
2022/03/17 12:29:49;;;;;;;54.73;39.60;;;11.30;99.90;;;;;;4984265;28;20527;-52
2022/03/17 12:32:17;;;;;;;53.50;40.37;;;11.40;99.90;;;;;;4979398;28;20489;-51
2022/03/17 12:34:46;;;;;;;51.83;40.43;;;11.30;99.90;;;;;;4992998;28;20441;-51
2022/03/17 12:37:13;;;;;;;56.07;40.43;;;11.30;99.90;;;;;;4987471;28;20889;-51
2022/03/17 12:39:40;;;;;;;52.73;39.87;;;11.30;99.90;;;;;;4983067;28;21017;-51
2022/03/17 12:42:19;;;;;;;54.00;40.07;;;11.30;99.90;;;;;;4988397;28;20461;-51
2022/03/17 12:44:52;;;;;;;53.07;39.70;;;11.30;99.90;;;;;;4993710;28;20454;-51
2022/03/17 12:47:20;;;;;;;49.03;35.87;;;11.40;99.90;;;;;;4992267;28;20491;-51
2022/03/17 12:49:47;;;;;;;51.63;36.70;;;11.30;99.90;;;;;;4989480;28;20471;-51
2022/03/17 12:52:17;;;;;;;47.97;36.13;;;11.30;99.90;;;;;;4988262;28;21060;-51
2022/03/17 12:54:44;;;;;;;52.03;37.60;;;11.30;99.90;;;;;;4984320;28;20980;-51
2022/03/17 12:57:10;;;;;;;50.87;38.03;;;11.30;99.90;;;;;;4987821;28;20920;-51
2022/03/17 12:59:38;;;;;;;59.10;41.00;;;11.30;99.90;;;;;;4993112;28;20445;-52
2022/03/17 13:02:07;;;;;;;52.47;36.17;;;11.40;99.90;;;;;;4979654;28;20520;-52
2022/03/17 13:04:36;;;;;;;52.50;38.07;;;11.40;99.90;;;;;;4982157;28;20473;-52